Time;durP1;ratioP1;P1;durP2;ratioP2;P2;SDS_P1;SDS_P2;PMS_P1;PMS_P2;Temp;Humidity;BMP_temperature;BMP_pressure;BME280_temperature;BME280_humidity;BME280_pressure;Samples;Min_cycle;Max_cycle;Signal;HPM_P1;HPM_P2
2023/04/10 00:00:31;;;;;;;10.50;9.40;;;;;;;6.62;85.66;98718.13;5093196;28;20552;-75
2023/04/10 00:03:01;;;;;;;10.43;9.43;;;;;;;6.52;84.97;98702.50;5093138;28;20223;-75
2023/04/10 00:05:28;;;;;;;11.00;9.90;;;;;;;6.53;86.41;98704.19;5092948;28;20220;-75
2023/04/10 00:07:54;;;;;;;10.40;9.40;;;;;;;6.44;86.57;98701.75;5093269;28;20204;-75
2023/04/10 00:10:21;;;;;;;11.30;9.97;;;;;;;6.41;87.57;98704.75;5092931;28;20204;-75
2023/04/10 00:12:47;;;;;;;10.47;8.70;;;;;;;6.38;89.71;98705.91;5093062;28;20220;-75
2023/04/10 00:15:14;;;;;;;10.73;9.67;;;;;;;6.38;88.34;98703.28;5093120;28;20204;-75
2023/04/10 00:17:40;;;;;;;10.83;9.73;;;;;;;6.34;88.16;98706.47;5092943;28;20621;-75
2023/04/10 00:20:07;;;;;;;11.77;10.53;;;;;;;6.31;87.92;98706.81;5093017;28;20204;-75
2023/04/10 00:22:33;;;;;;;12.60;9.67;;;;;;;6.32;88.42;98709.28;5095803;28;20232;-75
2023/04/10 00:25:00;;;;;;;10.50;9.23;;;;;;;6.29;89.04;98706.97;5097508;28;20250;-75
2023/04/10 00:27:26;;;;;;;10.77;9.67;;;;;;;6.28;88.71;98700.06;5096821;28;20207;-75
2023/04/10 00:29:52;;;;;;;10.53;9.53;;;;;;;6.21;88.79;98698.31;5096794;28;20204;-75
2023/04/10 00:32:19;;;;;;;10.20;9.17;;;;;;;6.20;89.59;98701.94;5096561;28;20227;-75
2023/04/10 00:34:45;;;;;;;10.63;9.47;;;;;;;6.16;89.88;98703.28;5096630;28;20238;-75
2023/04/10 00:37:12;;;;;;;11.63;10.30;;;;;;;6.12;92.80;98704.63;5096336;28;20207;-75
2023/04/10 00:39:38;;;;;;;10.87;9.77;;;;;;;6.11;91.05;98700.38;5096499;28;20572;-75
2023/04/10 00:42:08;;;;;;;11.50;10.30;;;;;;;6.02;92.36;98699.56;5096456;28;20227;-75
2023/04/10 00:44:36;;;;;;;9.90;8.97;;;;;;;5.96;91.81;98694.16;5096066;28;20626;-75
2023/04/10 00:47:03;;;;;;;11.40;9.63;;;;;;;5.95;92.80;98690.72;5096493;28;20265;-75
2023/04/10 00:49:30;;;;;;;11.83;10.60;;;;;;;5.88;92.62;98695.03;5096424;28;20204;-75
2023/04/10 00:51:57;;;;;;;12.23;10.57;;;;;;;5.86;93.15;98688.31;5096296;28;20211;-75
2023/04/10 00:54:23;;;;;;;11.37;10.07;;;;;;;5.94;92.30;98691.72;5096271;28;20204;-75
2023/04/10 00:56:50;;;;;;;11.70;9.83;;;;;;;5.85;93.31;98676.09;5096248;28;20203;-75
2023/04/10 00:59:16;;;;;;;11.97;10.77;;;;;;;5.87;94.81;98684.66;5096058;28;20210;-75
2023/04/10 01:01:43;;;;;;;11.13;9.70;;;;;;;5.90;93.97;98679.88;5096077;28;20203;-75
2023/04/10 01:04:10;;;;;;;10.63;9.63;;;;;;;5.82;93.73;98677.28;5095658;28;20231;-75
2023/04/10 01:06:57;;;;;;;11.97;10.67;;;;;;;5.81;94.99;98680.09;5094938;28;20200;-75
2023/04/10 01:09:36;;;;;;;11.97;10.77;;;;;;;5.78;93.99;98681.22;5095670;28;20645;-75
2023/04/10 01:12:05;;;;;;;10.80;9.33;;;;;;;5.73;95.13;98686.19;5095886;28;20253;-75
2023/04/10 01:15:02;;;;;;;11.47;10.37;;;;;;;5.63;95.00;98687.41;5095593;28;20655;-75
2023/04/10 01:17:35;;;;;;;11.83;10.57;;;;;;;5.71;93.92;98687.38;5095459;28;20671;-75
2023/04/10 01:20:09;;;;;;;10.33;9.30;;;;;;;5.66;94.21;98685.25;5095869;28;20192;-75
2023/04/10 01:22:58;;;;;;;10.93;9.83;;;;;;;5.66;94.31;98681.78;5095961;28;20231;-75
2023/04/10 01:25:41;;;;;;;11.00;9.47;;;;;;;5.58;94.82;98687.94;5094261;28;20591;-75
2023/04/10 01:28:23;;;;;;;10.97;9.87;;;;;;;5.51;95.83;98686.13;5095753;28;20281;-75
2023/04/10 01:30:58;;;;;;;11.17;10.07;;;;;;;5.49;94.92;98693.41;5094483;28;20195;-75
2023/04/10 01:33:33;;;;;;;11.50;10.13;;;;;;;5.56;94.30;98697.00;5095349;28;20234;-75
2023/04/10 01:36:04;;;;;;;11.60;10.40;;;;;;;5.49;96.30;98693.41;5095829;28;20187;-75
2023/04/10 01:38:31;;;;;;;11.53;10.33;;;;;;;5.39;97.20;98692.78;5095226;28;20195;-75
2023/04/10 01:41:00;;;;;;;11.47;9.53;;;;;;;5.53;95.81;98687.63;5095448;28;20299;-75
2023/04/10 01:43:27;;;;;;;11.27;10.17;;;;;;;5.43;96.42;98680.91;5095144;28;20270;-75
2023/04/10 01:45:56;;;;;;;11.00;9.83;;;;;;;5.43;97.84;98681.72;5094843;28;20224;-75
2023/04/10 01:48:22;;;;;;;12.07;10.67;;;;;;;5.32;97.23;98676.00;5095830;28;20248;-75
2023/04/10 01:50:50;;;;;;;12.00;10.60;;;;;;;5.31;98.49;98680.47;5095068;28;20208;-76
2023/04/10 01:53:17;;;;;;;13.17;11.30;;;;;;;5.26;99.35;98676.69;5095145;28;20634;-76
2023/04/10 01:55:44;;;;;;;12.60;10.70;;;;;;;5.21;99.41;98666.66;5095200;28;20567;-76
2023/04/10 01:58:11;;;;;;;11.20;10.10;;;;;;;5.24;99.31;98666.31;5094995;28;20210;-76
2023/04/10 02:00:40;;;;;;;11.23;9.93;;;;;;;5.21;99.07;98669.28;5095073;28;20204;-75
2023/04/10 02:03:06;;;;;;;11.30;10.00;;;;;;;5.20;100.00;98667.66;5094814;28;20228;-75
2023/04/10 02:05:56;;;;;;;11.67;9.77;;;;;;;5.19;100.00;98671.28;5095566;28;20223;-75
2023/04/10 02:08:34;;;;;;;14.37;10.70;;;;;;;5.12;100.00;98666.84;5094611;28;20184;-75
2023/04/10 02:11:45;;;;;;;11.93;9.77;;;;;;;5.07;100.00;98659.44;5094866;28;20194;-75
2023/04/10 02:14:17;;;;;;;12.20;10.67;;;;;;;5.10;100.00;98666.19;5094705;28;20237;-75
2023/04/10 02:16:44;;;;;;;12.27;10.93;;;;;;;5.09;100.00;98654.00;5094775;28;20199;-75
2023/04/10 02:19:11;;;;;;;11.93;10.30;;;;;;;5.11;100.00;98665.22;5094261;28;20224;-75
2023/04/10 02:21:39;;;;;;;10.83;9.73;;;;;;;5.11;100.00;98662.59;5093365;28;20294;-75
2023/04/10 02:24:06;;;;;;;11.93;10.73;;;;;;;5.13;100.00;98673.78;5094568;28;20277;-75
2023/04/10 02:26:49;;;;;;;11.30;10.10;;;;;;;5.10;100.00;98671.47;5094597;28;20206;-75
2023/04/10 02:29:17;;;;;;;10.83;9.77;;;;;;;5.08;99.39;98670.81;5095409;28;20187;-75
2023/04/10 02:31:44;;;;;;;12.90;10.40;;;;;;;5.01;100.00;98673.31;5094516;28;20204;-75
2023/04/10 02:34:11;;;;;;;10.77;9.67;;;;;;;4.95;99.64;98663.47;5094257;28;20232;-75
2023/04/10 02:36:38;;;;;;;10.97;9.87;;;;;;;4.79;100.00;98674.00;5094300;28;20200;-75
2023/04/10 02:39:05;;;;;;;13.70;9.73;;;;;;;4.80;100.00;98672.22;5093847;28;20212;-75
2023/04/10 02:41:32;;;;;;;11.30;9.73;;;;;;;4.84;100.00;98670.91;5094054;28;20212;-75
2023/04/10 02:43:58;;;;;;;11.07;9.97;;;;;;;4.86;100.00;98675.00;5093231;28;20231;-75
2023/04/10 02:46:25;;;;;;;10.93;9.57;;;;;;;4.81;100.00;98684.38;5093738;28;20234;-75
2023/04/10 02:48:55;;;;;;;12.13;10.53;;;;;;;4.72;100.00;98678.31;5094050;28;20199;-75
2023/04/10 02:51:21;;;;;;;11.37;10.03;;;;;;;4.87;100.00;98676.63;5093715;28;20706;-75
2023/04/10 02:53:48;;;;;;;10.97;9.77;;;;;;;4.74;100.00;98680.78;5093898;28;20231;-75
2023/04/10 02:56:14;;;;;;;11.00;9.70;;;;;;;4.82;100.00;98680.75;5094002;28;20202;-75
2023/04/10 02:58:44;;;;;;;10.90;9.50;;;;;;;4.77;100.00;98677.81;5093911;28;20208;-75
2023/04/10 03:01:11;;;;;;;11.30;10.13;;;;;;;4.72;100.00;98677.50;5094063;28;20219;-75
2023/04/10 03:03:37;;;;;;;12.97;10.67;;;;;;;4.70;100.00;98690.81;5093250;28;20228;-75
2023/04/10 03:06:04;;;;;;;12.20;9.77;;;;;;;4.76;100.00;98686.72;5093094;28;20215;-75
2023/04/10 03:08:31;;;;;;;11.83;10.53;;;;;;;4.66;100.00;98686.88;5093675;28;20203;-75
2023/04/10 03:10:57;;;;;;;11.90;10.53;;;;;;;4.65;100.00;98679.97;5093334;28;20200;-75
2023/04/10 03:13:23;;;;;;;13.07;10.40;;;;;;;4.62;100.00;98676.84;5093971;28;20235;-75
2023/04/10 03:15:50;;;;;;;11.70;10.40;;;;;;;4.56;100.00;98670.44;5093240;28;20208;-75
2023/04/10 03:18:16;;;;;;;11.13;9.70;;;;;;;4.56;100.00;98661.72;5093101;28;20682;-75
2023/04/10 03:20:42;;;;;;;11.47;10.27;;;;;;;4.58;100.00;98668.47;5093592;28;20567;-75
2023/04/10 03:23:09;;;;;;;12.47;10.13;;;;;;;4.47;100.00;98660.91;5093267;28;20571;-75
2023/04/10 03:25:36;;;;;;;14.40;10.37;;;;;;;4.54;100.00;98659.25;5093522;28;20250;-75
2023/04/10 03:28:02;;;;;;;10.80;9.70;;;;;;;4.52;100.00;98658.59;5093563;28;20210;-75
2023/04/10 03:30:29;;;;;;;11.63;10.40;;;;;;;4.50;100.00;98659.75;5093200;28;20219;-75
2023/04/10 03:32:55;;;;;;;11.23;9.93;;;;;;;4.50;100.00;98655.31;5093463;28;20297;-75
2023/04/10 03:35:22;;;;;;;11.83;10.60;;;;;;;4.45;100.00;98651.53;5093360;28;20226;-75
2023/04/10 03:37:48;;;;;;;11.30;9.77;;;;;;;4.47;100.00;98660.91;5093558;28;20211;-75
2023/04/10 03:40:15;;;;;;;11.80;10.50;;;;;;;4.48;100.00;98645.94;5093345;28;20206;-75
2023/04/10 03:42:41;;;;;;;11.27;10.07;;;;;;;4.44;100.00;98652.50;5093506;28;20263;-76
2023/04/10 03:45:08;;;;;;;12.00;10.70;;;;;;;4.36;100.00;98639.34;5093172;28;20230;-75
2023/04/10 03:47:34;;;;;;;12.13;10.67;;;;;;;4.46;100.00;98643.47;5093067;28;20214;-75
2023/04/10 03:50:01;;;;;;;12.00;10.77;;;;;;;4.45;100.00;98641.81;5093494;28;20242;-75
2023/04/10 03:52:27;;;;;;;12.07;10.63;;;;;;;4.55;100.00;98646.91;5092899;28;20228;-75
2023/04/10 03:54:54;;;;;;;12.10;10.47;;;;;;;4.52;100.00;98648.06;5093130;28;20200;-75
2023/04/10 03:57:21;;;;;;;11.90;9.93;;;;;;;4.59;100.00;98637.69;5097290;28;20298;-75
2023/04/10 03:59:48;;;;;;;13.13;10.40;;;;;;;4.55;100.00;98645.09;5097091;28;20208;-75
2023/04/10 04:02:14;;;;;;;10.90;9.80;;;;;;;4.56;100.00;98644.09;5097028;28;20280;-75
2023/04/10 04:04:41;;;;;;;11.77;9.73;;;;;;;4.53;100.00;98644.41;5096834;28;20215;-75
2023/04/10 04:07:07;;;;;;;11.60;10.40;;;;;;;4.59;100.00;98632.41;5097051;28;20200;-75
2023/04/10 04:09:34;;;;;;;11.83;10.03;;;;;;;4.48;100.00;98640.66;5096781;28;20204;-75
2023/04/10 04:12:00;;;;;;;11.10;9.70;;;;;;;4.24;100.00;98641.50;5097505;28;20214;-75
2023/04/10 04:14:26;;;;;;;11.57;10.37;;;;;;;4.34;100.00;98636.06;5097498;28;20208;-75
2023/04/10 04:16:53;;;;;;;11.73;9.63;;;;;;;4.32;100.00;98636.25;5096705;28;20208;-75
2023/04/10 04:19:19;;;;;;;11.93;10.37;;;;;;;4.36;100.00;98634.09;5097015;28;20573;-75
2023/04/10 04:21:46;;;;;;;12.10;10.73;;;;;;;4.38;100.00;98634.75;5096633;28;20610;-75
2023/04/10 04:24:12;;;;;;;11.40;10.13;;;;;;;4.40;100.00;98627.50;5096772;28;20228;-75
2023/04/10 04:26:38;;;;;;;11.77;9.97;;;;;;;4.39;100.00;98629.31;5096403;28;20695;-75
2023/04/10 04:29:05;;;;;;;12.37;10.70;;;;;;;4.32;100.00;98630.13;5096759;28;20200;-75
2023/04/10 04:31:32;;;;;;;12.43;10.03;;;;;;;4.22;100.00;98632.13;5096745;28;20204;-75
2023/04/10 04:33:59;;;;;;;11.33;9.97;;;;;;;4.34;100.00;98628.97;5096623;28;20281;-75
2023/04/10 04:36:26;;;;;;;12.57;10.97;;;;;;;4.47;100.00;98631.13;5096258;28;20677;-75
2023/04/10 04:38:52;;;;;;;12.27;10.83;;;;;;;4.47;100.00;98628.50;5096580;28;20281;-75
2023/04/10 04:41:19;;;;;;;13.00;11.63;;;;;;;4.54;100.00;98624.19;5096142;28;20777;-75
2023/04/10 04:43:46;;;;;;;13.37;10.90;;;;;;;4.48;100.00;98630.94;5096382;28;20224;-75
2023/04/10 04:46:12;;;;;;;12.37;10.77;;;;;;;4.47;100.00;98629.31;5096350;28;20300;-75
2023/04/10 04:48:39;;;;;;;11.97;10.57;;;;;;;4.43;100.00;98629.81;5096352;28;20595;-75
2023/04/10 04:51:08;;;;;;;14.13;11.87;;;;;;;4.37;100.00;98625.19;5096287;28;20207;-75
2023/04/10 04:53:35;;;;;;;12.17;10.87;;;;;;;4.35;100.00;98629.81;5096235;28;20250;-75
2023/04/10 04:56:02;;;;;;;11.73;10.53;;;;;;;4.40;100.00;98627.50;5096023;28;20204;-75
2023/04/10 04:58:28;;;;;;;12.27;10.93;;;;;;;4.49;100.00;98627.34;5095876;28;20666;-75
2023/04/10 05:00:54;;;;;;;13.53;11.83;;;;;;;4.55;100.00;98625.84;5096116;28;20208;-75
2023/04/10 05:03:21;;;;;;;14.60;11.47;;;;;;;4.64;100.00;98630.09;5096092;28;20245;-75
2023/04/10 05:05:47;;;;;;;13.40;10.70;;;;;;;4.63;100.00;98629.28;5095783;28;20224;-75
2023/04/10 05:08:14;;;;;;;13.27;11.40;;;;;;;4.64;100.00;98628.28;5096197;28;20204;-75
2023/04/10 05:10:41;;;;;;;12.07;10.77;;;;;;;4.66;100.00;98636.03;5095914;28;20210;-75
2023/04/10 05:13:07;;;;;;;13.00;11.60;;;;;;;4.73;100.00;98631.72;5095468;28;20714;-75
2023/04/10 05:15:33;;;;;;;12.03;10.77;;;;;;;4.78;100.00;98624.13;5095885;28;20210;-75
2023/04/10 05:18:00;;;;;;;12.60;11.30;;;;;;;4.89;100.00;98623.78;5095977;28;20216;-75
2023/04/10 05:20:26;;;;;;;12.50;10.47;;;;;;;4.99;100.00;98627.03;5096605;28;20218;-75
2023/04/10 05:22:52;;;;;;;12.23;10.93;;;;;;;5.09;100.00;98619.75;5095383;28;20224;-75
2023/04/10 05:25:19;;;;;;;11.80;10.60;;;;;;;5.16;100.00;98624.16;5096851;28;20230;-75
2023/04/10 05:27:45;;;;;;;11.37;10.13;;;;;;;5.14;100.00;98630.59;5095270;28;20210;-75
2023/04/10 05:30:12;;;;;;;11.03;9.93;;;;;;;5.25;100.00;98630.25;5106389;28;20203;-75
2023/04/10 05:32:38;;;;;;;12.07;10.43;;;;;;;5.29;100.00;98635.00;5115607;28;20238;-75
2023/04/10 05:35:05;;;;;;;10.43;9.30;;;;;;;5.32;100.00;98637.28;5113390;28;20211;-75
2023/04/10 05:37:31;;;;;;;11.93;10.33;;;;;;;5.40;100.00;98634.63;5115869;28;20200;-75
2023/04/10 05:39:58;;;;;;;11.70;10.20;;;;;;;5.51;100.00;98630.75;5114635;28;20200;-75
2023/04/10 05:42:25;;;;;;;11.40;10.13;;;;;;;5.60;100.00;98629.72;5115729;28;20227;-75
2023/04/10 05:44:52;;;;;;;11.63;10.07;;;;;;;5.67;100.00;98626.22;5111392;28;20199;-75
2023/04/10 05:47:18;;;;;;;11.97;10.63;;;;;;;5.73;100.00;98630.81;5104669;28;20694;-75
2023/04/10 05:49:45;;;;;;;11.63;10.07;;;;;;;5.92;100.00;98634.84;5094861;28;20663;-75
2023/04/10 05:52:11;;;;;;;11.10;9.93;;;;;;;5.95;99.46;98627.38;5097847;28;20563;-75
2023/04/10 05:54:37;;;;;;;11.93;10.63;;;;;;;6.05;99.88;98627.13;5114618;28;20199;-75
2023/04/10 05:57:04;;;;;;;10.47;9.37;;;;;;;6.11;97.33;98637.00;5114374;28;20203;-75
2023/04/10 05:59:30;;;;;;;12.13;9.87;;;;;;;6.16;96.55;98637.28;5115557;28;20203;-75
2023/04/10 06:01:57;;;;;;;10.50;9.40;;;;;;;6.23;96.06;98632.94;5113777;28;20577;-75
2023/04/10 06:04:24;;;;;;;10.77;9.67;;;;;;;6.31;95.55;98630.22;5114198;28;20203;-75
2023/04/10 06:06:50;;;;;;;10.73;9.63;;;;;;;6.51;93.28;98631.41;5115155;28;20300;-75
2023/04/10 06:09:16;;;;;;;11.50;10.00;;;;;;;6.50;92.26;98635.84;5113640;28;20718;-75
2023/04/10 06:11:43;;;;;;;13.77;9.97;;;;;;;6.44;96.02;98638.38;5115201;28;20203;-75
2023/04/10 06:14:09;;;;;;;11.10;9.83;;;;;;;6.48;94.26;98639.66;5114986;28;20223;-75
2023/04/10 06:16:35;;;;;;;11.47;10.07;;;;;;;6.51;95.14;98637.47;5111682;28;20199;-75
2023/04/10 06:19:02;;;;;;;10.77;9.67;;;;;;;6.52;96.39;98627.75;5113777;28;20666;-75
2023/04/10 06:21:28;;;;;;;10.27;9.17;;;;;;;6.76;92.20;98632.78;5113183;28;20286;-75
2023/04/10 06:23:54;;;;;;;10.40;9.40;;;;;;;6.67;91.69;98633.88;5114837;28;20219;-75
2023/04/10 06:26:21;;;;;;;10.53;9.43;;;;;;;6.74;89.31;98632.16;5111280;28;20269;-76
2023/04/10 06:28:47;;;;;;;10.40;9.27;;;;;;;6.70;90.18;98636.16;5094485;28;20199;-76
2023/04/10 06:31:14;;;;;;;10.13;9.13;;;;;;;6.78;88.91;98636.88;5107510;28;20566;-75
2023/04/10 06:33:40;;;;;;;10.97;9.40;;;;;;;6.77;90.76;98639.69;5114665;28;20295;-75
2023/04/10 06:36:07;;;;;;;11.80;10.53;;;;;;;6.67;90.32;98642.63;5113435;28;20203;-75
2023/04/10 06:38:36;;;;;;;11.57;10.37;;;;;;;6.83;90.62;98631.06;5093768;28;20240;-75
2023/04/10 06:41:03;;;;;;;11.47;10.23;;;;;;;7.04;87.92;98631.16;5093516;28;20230;-75
2023/04/10 06:43:30;;;;;;;12.77;10.50;;;;;;;7.06;86.44;98629.16;5093827;28;20228;-75
2023/04/10 06:45:57;;;;;;;12.60;11.30;;;;;;;6.94;87.56;98622.69;5093425;28;20227;-75
2023/04/10 06:48:23;;;;;;;12.33;11.03;;;;;;;7.03;87.50;98621.59;5092853;28;20564;-75
2023/04/10 06:50:50;;;;;;;11.37;10.13;;;;;;;7.11;84.58;98629.44;5094034;28;20214;-75
2023/04/10 06:53:16;;;;;;;10.80;9.80;;;;;;;7.07;86.92;98633.44;5099821;28;20227;-75
2023/04/10 06:55:42;;;;;;;13.33;10.83;;;;;;;7.11;87.49;98632.06;5114314;28;20199;-75
2023/04/10 06:58:09;;;;;;;11.33;10.13;;;;;;;7.19;88.75;98632.78;5113138;28;20199;-75
2023/04/10 07:00:35;;;;;;;10.47;9.43;;;;;;;7.30;87.21;98631.50;5114006;28;20745;-75
2023/04/10 07:03:01;;;;;;;11.33;10.20;;;;;;;7.46;86.87;98631.31;5112593;28;20773;-75
2023/04/10 07:05:28;;;;;;;10.13;8.93;;;;;;;7.58;86.69;98633.28;5113782;28;20670;-75
2023/04/10 07:07:54;;;;;;;9.30;8.40;;;;;;;7.89;82.19;98623.25;5103226;28;20200;-75
2023/04/10 07:10:21;;;;;;;10.47;9.37;;;;;;;8.19;79.87;98622.09;5104383;28;20210;-75
2023/04/10 07:12:47;;;;;;;9.73;8.63;;;;;;;8.33;79.71;98623.09;5102098;28;20234;-75
2023/04/10 07:15:13;;;;;;;10.13;8.83;;;;;;;8.25;81.18;98620.56;5097319;28;20200;-75
2023/04/10 07:17:40;;;;;;;11.00;9.00;;;;;;;8.42;80.53;98617.44;5093538;28;20214;-75
2023/04/10 07:20:07;;;;;;;10.00;9.00;;;;;;;8.38;79.69;98612.72;5098103;28;20206;-75
2023/04/10 07:22:33;;;;;;;9.83;8.83;;;;;;;8.44;80.58;98609.31;5113930;28;20224;-75
2023/04/10 07:24:59;;;;;;;8.77;7.90;;;;;;;8.48;73.92;98613.22;5112442;28;20203;-75
2023/04/10 07:27:26;;;;;;;8.40;7.57;;;;;;;8.58;75.24;98611.03;5113417;28;20226;-75
2023/04/10 07:29:55;;;;;;;8.73;7.93;;;;;;;8.82;75.15;98613.28;5112456;28;20294;-75
2023/04/10 07:32:22;;;;;;;8.57;7.67;;;;;;;8.89;74.51;98617.59;5113835;27;20226;-75
2023/04/10 07:34:48;;;;;;;8.53;7.73;;;;;;;9.02;74.08;98622.16;5108605;28;20231;-75
2023/04/10 07:37:14;;;;;;;8.70;7.90;;;;;;;9.24;71.83;98618.41;5093357;28;20200;-75
2023/04/10 07:39:41;;;;;;;10.03;7.73;;;;;;;9.34;69.78;98616.19;5097045;28;20202;-75
2023/04/10 07:42:07;;;;;;;8.23;7.43;;;;;;;9.32;71.95;98612.94;5113123;28;20211;-75
2023/04/10 07:44:33;;;;;;;8.43;7.63;;;;;;;9.37;71.31;98615.81;5104744;28;20199;-75
2023/04/10 07:47:00;;;;;;;8.20;7.43;;;;;;;9.49;70.63;98617.69;5107063;28;20571;-74
2023/04/10 07:49:26;;;;;;;7.40;6.70;;;;;;;9.57;67.66;98609.56;5112870;28;20235;-75
2023/04/10 07:51:52;;;;;;;6.63;6.03;;;;;;;9.68;66.24;98616.94;5109388;28;20203;-74
2023/04/10 07:54:19;;;;;;;6.77;6.07;;;;;;;9.74;65.08;98616.13;5094720;28;20224;-75
2023/04/10 07:56:45;;;;;;;6.60;6.03;;;;;;;9.90;65.17;98609.66;5113860;28;20210;-75
2023/04/10 07:59:12;;;;;;;6.80;6.10;;;;;;;10.19;64.27;98615.44;5111793;28;20203;-74
2023/04/10 08:01:38;;;;;;;6.80;6.10;;;;;;;10.07;63.16;98616.25;5093128;28;20203;-75
2023/04/10 08:04:05;;;;;;;8.87;6.20;;;;;;;10.31;62.76;98608.50;5092707;28;20230;-75
2023/04/10 08:06:32;;;;;;;6.37;5.77;;;;;;;10.41;65.08;98602.81;5095837;28;20238;-75
2023/04/10 08:08:58;;;;;;;6.67;6.00;;;;;;;10.50;61.18;98601.59;5092266;28;20681;-73
2023/04/10 08:11:28;;;;;;;6.10;5.50;;;;;;;10.55;63.67;98602.59;5092827;28;20546;-75
2023/04/10 08:13:58;;;;;;;6.30;5.70;;;;;;;10.73;61.97;98602.78;5093043;28;20224;-75
2023/04/10 08:16:26;;;;;;;5.67;4.80;;;;;;;10.93;58.96;98594.75;5112301;28;20549;-75
2023/04/10 08:18:53;;;;;;;5.33;4.83;;;;;;;11.13;56.29;98603.53;5112935;28;20215;-75
2023/04/10 08:21:22;;;;;;;5.17;4.67;;;;;;;11.31;58.70;98594.88;5093702;28;20575;-75
2023/04/10 08:23:50;;;;;;;4.90;4.50;;;;;;;11.39;56.05;98599.97;5092933;28;20360;-74
2023/04/10 08:26:18;;;;;;;4.77;4.37;;;;;;;11.58;55.36;98596.41;5092211;28;20246;-76
2023/04/10 08:28:46;;;;;;;4.33;3.93;;;;;;;11.72;54.84;98604.16;5092613;28;20208;-75
2023/04/10 08:31:13;;;;;;;5.20;4.70;;;;;;;11.63;54.91;98593.94;5092022;28;20231;-74
2023/04/10 08:33:40;;;;;;;4.93;4.43;;;;;;;11.63;56.46;98594.78;5092770;28;20227;-75
2023/04/10 08:36:06;;;;;;;4.40;4.00;;;;;;;11.58;53.95;98596.41;5107753;28;20621;-75
2023/04/10 08:38:33;;;;;;;4.50;4.10;;;;;;;11.75;53.58;98593.06;5112970;28;20209;-75
2023/04/10 08:40:59;;;;;;;4.60;4.20;;;;;;;11.79;54.10;98583.59;5097041;28;20215;-75
2023/04/10 08:43:26;;;;;;;4.57;4.17;;;;;;;11.91;52.87;98587.25;5095765;28;20228;-75
2023/04/10 08:45:53;;;;;;;4.20;3.90;;;;;;;12.05;52.50;98598.63;5095807;28;20664;-74
2023/04/10 08:48:20;;;;;;;4.53;4.10;;;;;;;11.92;53.98;98578.19;5096045;28;20287;-74
2023/04/10 08:50:47;;;;;;;4.10;3.80;;;;;;;12.08;51.39;98585.66;5095510;28;20204;-75
2023/04/10 08:53:15;;;;;;;4.20;3.80;;;;;;;12.20;51.84;98578.63;5096159;28;20228;-75
2023/04/10 08:55:42;;;;;;;3.83;3.53;;;;;;;12.21;52.06;98576.78;5096709;28;20262;-75
2023/04/10 08:58:10;;;;;;;4.13;3.73;;;;;;;12.27;52.79;98576.75;5095869;28;20200;-75
2023/04/10 09:00:38;;;;;;;3.93;3.63;;;;;;;12.71;52.40;98579.22;5106823;28;20293;-75
2023/04/10 09:03:09;;;;;;;4.00;3.70;;;;;;;12.69;51.54;98573.28;5116378;27;20229;-75
2023/04/10 09:05:36;;;;;;;3.87;3.40;;;;;;;12.75;50.12;98569.72;5105042;28;20207;-75
2023/04/10 09:08:04;;;;;;;4.03;3.63;;;;;;;12.58;50.77;98568.69;5095724;28;20230;-75
2023/04/10 09:10:31;;;;;;;4.60;3.70;;;;;;;12.67;50.67;98562.03;5094921;28;20238;-75
2023/04/10 09:12:57;;;;;;;3.50;3.20;;;;;;;12.86;50.55;98563.69;5095185;28;20299;-75
2023/04/10 09:15:24;;;;;;;3.37;3.07;;;;;;;13.16;47.86;98564.59;5102941;28;20207;-75
2023/04/10 09:18:00;;;;;;;3.23;2.93;;;;;;;13.45;47.58;98565.69;5115739;28;20206;-76
2023/04/10 09:20:32;;;;;;;2.80;2.60;;;;;;;13.54;44.92;98562.50;5107049;28;20218;-75
2023/04/10 09:22:58;;;;;;;3.40;3.00;;;;;;;13.61;44.56;98560.56;5095177;28;20788;-76
2023/04/10 09:25:30;;;;;;;2.50;2.30;;;;;;;13.80;45.55;98558.66;5095055;28;20207;-75
2023/04/10 09:28:08;;;;;;;2.80;2.60;;;;;;;13.85;44.81;98551.59;5095408;28;20219;-75
2023/04/10 09:30:42;;;;;;;3.00;2.80;;;;;;;13.78;46.01;98550.88;5103203;28;20211;-75
2023/04/10 09:33:22;;;;;;;3.10;2.90;;;;;;;14.12;45.58;98547.50;5104886;28;20234;-75
2023/04/10 09:35:49;;;;;;;3.20;3.00;;;;;;;14.05;45.23;98541.44;5104729;28;20688;-76
2023/04/10 09:38:18;;;;;;;3.23;3.03;;;;;;;14.39;44.07;98535.34;5115635;28;20605;-75
2023/04/10 09:40:47;;;;;;;2.90;2.63;;;;;;;14.38;43.21;98536.38;5114180;27;20229;-75
2023/04/10 09:43:26;;;;;;;3.17;2.93;;;;;;;14.20;44.45;98523.09;5115301;28;20223;-75
2023/04/10 09:45:55;;;;;;;3.17;2.87;;;;;;;14.27;43.54;98513.13;5103038;28;20207;-75
2023/04/10 09:48:22;;;;;;;3.10;2.80;;;;;;;14.32;43.70;98509.75;5094520;28;20326;-75
2023/04/10 09:50:48;;;;;;;2.97;2.77;;;;;;;14.80;43.26;98513.84;5097990;28;20614;-75
2023/04/10 09:53:18;;;;;;;2.90;2.70;;;;;;;14.85;42.89;98508.59;5108824;28;20226;-75
2023/04/10 09:55:45;;;;;;;2.70;2.50;;;;;;;14.81;42.11;98498.56;5104584;28;20207;-75
2023/04/10 09:58:12;;;;;;;2.80;2.60;;;;;;;14.93;41.66;98494.81;5094061;28;20287;-75
2023/04/10 10:00:42;;;;;;;2.60;2.40;;;;;;;14.93;41.48;98492.16;5094822;28;20204;-75
2023/04/10 10:03:17;;;;;;;2.50;2.30;;;;;;;14.86;40.54;98494.16;5093850;28;20219;-74
2023/04/10 10:05:46;;;;;;;2.83;2.63;;;;;;;14.83;43.25;98491.94;5094236;28;20203;-74
2023/04/10 10:08:14;;;;;;;2.80;2.60;;;;;;;14.90;41.58;98481.94;5100782;28;20223;-75
2023/04/10 10:10:50;;;;;;;2.50;2.30;;;;;;;15.20;40.85;98493.25;5114685;28;20203;-75
2023/04/10 10:13:44;;;;;;;2.63;2.43;;;;;;;15.24;40.72;98480.22;5113276;27;20230;-75
2023/04/10 10:16:39;;;;;;;2.53;2.33;;;;;;;15.24;39.25;98477.53;5113839;28;20565;-76
2023/04/10 10:19:08;;;;;;;3.23;2.93;;;;;;;15.57;41.26;98470.44;5097991;28;20218;-74
2023/04/10 10:21:36;;;;;;;2.17;2.07;;;;;;;15.72;40.36;98469.88;5094151;28;20211;-74
2023/04/10 10:24:07;;;;;;;2.70;2.50;;;;;;;15.60;39.80;98461.91;5104341;28;20702;-74
2023/04/10 10:26:34;;;;;;;2.53;2.33;;;;;;;15.79;39.15;98460.63;5095662;28;20221;-74
2023/04/10 10:29:04;;;;;;;2.33;2.07;;;;;;;15.89;39.87;98449.28;5093881;28;20682;-73
2023/04/10 10:31:35;;;;;;;2.27;2.07;;;;;;;15.97;39.13;98447.00;5092933;28;20196;-74
2023/04/10 10:34:04;;;;;;;2.17;2.07;;;;;;;15.93;38.59;98443.16;5094641;28;20312;-74
2023/04/10 10:36:31;;;;;;;2.67;2.47;;;;;;;16.21;36.91;98435.06;5093606;28;20235;-75
2023/04/10 10:39:09;;;;;;;2.30;2.20;;;;;;;16.40;36.04;98436.44;5093776;28;20208;-74
2023/04/10 10:42:03;;;;;;;2.40;2.23;;;;;;;16.51;37.71;98426.66;5093346;28;20195;-74
2023/04/10 10:44:36;;;;;;;2.93;2.73;;;;;;;16.38;37.35;98424.28;5079402;28;20559;-74
2023/04/10 10:47:27;;;;;;;2.17;2.07;;;;;;;16.49;36.30;98418.84;5092016;28;20218;-74
2023/04/10 10:49:54;;;;;;;2.33;2.10;;;;;;;16.54;36.84;98420.78;5093250;28;20745;-74
2023/04/10 10:52:44;;;;;;;1.90;1.80;;;;;;;16.77;33.86;98409.81;5093306;28;20258;-74
2023/04/10 10:55:22;;;;;;;2.00;1.90;;;;;;;16.42;34.02;98412.84;5093948;28;20192;-74
2023/04/10 10:57:54;;;;;;;1.73;1.63;;;;;;;16.55;32.35;98399.06;5092934;28;20303;-74
2023/04/10 11:00:22;;;;;;;1.60;1.50;;;;;;;16.60;31.35;98406.38;5097953;28;20199;-75
2023/04/10 11:03:21;;;;;;;1.93;1.80;;;;;;;16.49;33.42;98407.28;5105671;28;20223;-73
2023/04/10 11:05:54;;;;;;;1.60;1.50;;;;;;;16.40;33.42;98398.88;5048314;28;20204;-74
2023/04/10 11:08:32;;;;;;;1.60;1.50;;;;;;;16.55;31.09;98401.75;5104215;28;20222;-74
2023/04/10 11:11:10;;;;;;;1.37;1.30;;;;;;;16.52;30.33;98402.22;5113579;28;20210;-74
2023/04/10 11:13:38;;;;;;;1.67;1.40;;;;;;;16.81;31.53;98397.50;5112243;28;20231;-74
2023/04/10 11:16:06;;;;;;;1.37;1.27;;;;;;;16.75;32.31;98393.16;5113390;28;20203;-74
2023/04/10 11:18:45;;;;;;;1.50;1.40;;;;;;;16.83;31.99;98396.19;5111750;28;20207;-74
2023/04/10 11:21:11;;;;;;;1.40;1.30;;;;;;;16.88;31.01;98396.25;5113444;28;20213;-74
2023/04/10 11:23:58;;;;;;;1.50;1.40;;;;;;;17.11;31.03;98382.56;5099748;28;20227;-74
2023/04/10 11:26:33;;;;;;;1.40;1.30;;;;;;;16.90;33.21;98382.56;5085755;28;20211;-74
2023/04/10 11:29:03;;;;;;;1.33;1.23;;;;;;;17.08;29.93;98387.63;5092372;28;20211;-74
2023/04/10 11:31:30;;;;;;;1.97;1.30;;;;;;;16.92;30.24;98381.25;5093407;28;20246;-74
2023/04/10 11:33:56;;;;;;;1.30;1.20;;;;;;;16.87;32.61;98375.84;5092875;28;20231;-73
2023/04/10 11:36:23;;;;;;;1.40;1.17;;;;;;;16.91;29.68;98382.34;5092894;28;20230;-74